Time;durP1;ratioP1;P1;durP2;ratioP2;P2;SDS_P1;SDS_P2;PMS_P1;PMS_P2;Temp;Humidity;BMP_temperature;BMP_pressure;BME280_temperature;BME280_humidity;BME280_pressure;Samples;Min_cycle;Max_cycle;Signal;HPM_P1;HPM_P2
2023/06/10 00:02:07;;;;;;;8.70;5.30;;;16.80;91.90;;;;;;5071364;28;20077;-75
2023/06/10 00:04:33;;;;;;;9.98;5.00;;;16.80;91.80;;;;;;5089848;28;20040;-75
2023/06/10 00:06:59;;;;;;;9.85;4.72;;;16.80;92.10;;;;;;5085635;28;20051;-74
2023/06/10 00:09:25;;;;;;;9.50;5.13;;;16.80;92.20;;;;;;5108446;27;20048;-75
2023/06/10 00:11:51;;;;;;;9.25;5.20;;;16.80;92.20;;;;;;5068735;28;20044;-74
2023/06/10 00:14:17;;;;;;;10.75;5.43;;;16.80;92.80;;;;;;5070437;28;20687;-75
2023/06/10 00:16:44;;;;;;;8.43;4.57;;;16.80;92.50;;;;;;5069804;28;20107;-75
2023/06/10 00:19:13;;;;;;;6.88;5.05;;;16.80;92.70;;;;;;5089968;28;20492;-75
2023/06/10 00:21:44;;;;;;;14.00;5.18;;;16.70;92.80;;;;;;5086708;28;20040;-74
2023/06/10 00:24:11;;;;;;;9.38;5.68;;;16.70;93.10;;;;;;5072890;28;20247;-74
2023/06/10 00:26:41;;;;;;;9.77;6.40;;;16.60;93.20;;;;;;5075763;28;20475;-75
2023/06/10 00:29:07;;;;;;;9.90;5.30;;;16.60;93.40;;;;;;5105319;27;20051;-75
2023/06/10 00:31:37;;;;;;;11.93;5.68;;;16.60;93.60;;;;;;5056964;28;20119;-75
2023/06/10 00:34:03;;;;;;;9.52;5.63;;;16.60;93.80;;;;;;5068015;28;20032;-75
2023/06/10 00:36:30;;;;;;;9.50;5.15;;;16.60;94.20;;;;;;5094458;28;20051;-75
2023/06/10 00:38:56;;;;;;;11.50;5.43;;;16.50;94.50;;;;;;5073266;28;20040;-75
2023/06/10 00:41:22;;;;;;;10.70;5.68;;;16.50;94.60;;;;;;5091338;28;20549;-75
2023/06/10 00:43:47;;;;;;;9.43;5.93;;;16.40;94.90;;;;;;5089325;28;20044;-75
2023/06/10 00:46:13;;;;;;;11.13;5.65;;;16.40;95.30;;;;;;5090032;28;20121;-75
2023/06/10 00:48:43;;;;;;;10.55;6.07;;;16.40;95.50;;;;;;5091140;28;20079;-74
2023/06/10 00:51:09;;;;;;;10.25;5.35;;;16.30;95.70;;;;;;5074382;28;20065;-74
2023/06/10 00:53:41;;;;;;;10.95;6.10;;;16.40;95.90;;;;;;5091278;27;20099;-74
2023/06/10 00:56:07;;;;;;;13.88;5.50;;;16.30;96.40;;;;;;5082896;28;20037;-74
2023/06/10 00:58:33;;;;;;;12.02;5.90;;;16.40;96.10;;;;;;5071229;28;20036;-74
2023/06/10 01:00:58;;;;;;;13.77;6.32;;;16.40;96.20;;;;;;5092378;27;20032;-74
2023/06/10 01:03:24;;;;;;;7.43;5.72;;;16.40;96.20;;;;;;5055865;28;20464;-74
2023/06/10 01:06:35;;;;;;;12.27;5.35;;;16.40;96.20;;;;;;5102647;27;20194;-74
2023/06/10 01:09:37;;;;;;;9.18;5.78;;;16.40;96.60;;;;;;5043779;28;20044;-74
2023/06/10 01:12:26;;;;;;;11.65;5.78;;;16.40;96.40;;;;;;5074599;28;20037;-74
2023/06/10 01:14:52;;;;;;;12.63;6.15;;;16.40;96.40;;;;;;5057368;28;20044;-74
2023/06/10 01:17:18;;;;;;;13.50;6.00;;;16.40;96.70;;;;;;5103762;27;20032;-74
2023/06/10 01:19:52;;;;;;;11.73;5.60;;;16.30;97.10;;;;;;5094103;28;20485;-74
2023/06/10 01:22:18;;;;;;;8.52;6.03;;;16.20;97.20;;;;;;5098649;27;20458;-74
2023/06/10 01:24:44;;;;;;;12.70;5.95;;;16.10;97.60;;;;;;5065225;28;20121;-74
2023/06/10 01:27:14;;;;;;;9.25;5.28;;;16.10;97.90;;;;;;5076985;28;20044;-75
2023/06/10 01:29:46;;;;;;;9.27;6.78;;;16.00;98.20;;;;;;5088990;27;20043;-75
2023/06/10 01:32:21;;;;;;;15.18;6.00;;;15.90;98.70;;;;;;5083432;28;20041;-74
2023/06/10 01:34:48;;;;;;;13.45;6.88;;;15.80;98.70;;;;;;5073767;28;20093;-74
2023/06/10 01:37:18;;;;;;;11.20;6.03;;;15.70;98.90;;;;;;5093953;27;20392;-74
2023/06/10 01:39:45;;;;;;;10.18;6.43;;;15.70;99.10;;;;;;5060058;28;20044;-74
2023/06/10 01:42:12;;;;;;;9.82;6.07;;;15.60;99.90;;;;;;5065717;28;20476;-74
2023/06/10 01:44:39;;;;;;;10.68;6.43;;;15.50;99.90;;;;;;5080061;28;20130;-74
2023/06/10 01:47:05;;;;;;;15.27;7.88;;;15.40;99.90;;;;;;5080581;28;20051;-74
2023/06/10 01:49:31;;;;;;;12.15;7.10;;;15.30;99.90;;;;;;5071534;28;20036;-74
2023/06/10 01:51:56;;;;;;;11.05;6.13;;;15.20;99.90;;;;;;5108064;27;20446;-74
2023/06/10 01:54:22;;;;;;;14.57;6.15;;;15.20;99.90;;;;;;5097501;27;20052;-74
2023/06/10 01:56:48;;;;;;;12.48;6.95;;;15.10;99.90;;;;;;5063266;28;20040;-75
2023/06/10 01:59:13;;;;;;;12.40;6.95;;;15.00;99.90;;;;;;5061897;28;20044;-74
2023/06/10 02:01:39;;;;;;;12.25;6.60;;;14.90;99.90;;;;;;5091285;27;20031;-74
2023/06/10 02:04:05;;;;;;;12.85;7.10;;;14.90;99.90;;;;;;5049427;28;20043;-74
2023/06/10 02:06:31;;;;;;;9.88;6.32;;;14.90;99.90;;;;;;5096380;27;20036;-75
2023/06/10 02:08:56;;;;;;;14.95;7.45;;;14.80;99.90;;;;;;5069303;28;20438;-74
2023/06/10 02:11:22;;;;;;;12.73;6.53;;;14.80;99.90;;;;;;5114347;27;20032;-74
2023/06/10 02:13:47;;;;;;;12.38;6.80;;;14.70;99.90;;;;;;5100066;27;20074;-75
2023/06/10 02:16:13;;;;;;;8.05;6.20;;;14.70;99.90;;;;;;5082967;28;20066;-74
2023/06/10 02:18:42;;;;;;;14.05;6.80;;;14.70;99.90;;;;;;5078628;28;20044;-74
2023/06/10 02:21:08;;;;;;;14.02;7.78;;;14.60;99.90;;;;;;5092953;27;20035;-75
2023/06/10 02:23:34;;;;;;;14.48;7.10;;;14.60;99.90;;;;;;5082171;28;20040;-74
2023/06/10 02:26:01;;;;;;;12.25;6.95;;;14.60;99.90;;;;;;5113733;27;20055;-74
2023/06/10 02:28:27;;;;;;;12.13;7.43;;;14.50;99.90;;;;;;5083573;28;20040;-74
2023/06/10 02:30:53;;;;;;;19.90;7.65;;;14.50;99.90;;;;;;5084197;28;20050;-74
2023/06/10 02:33:19;;;;;;;16.17;7.65;;;14.40;99.90;;;;;;5070772;28;20032;-74
2023/06/10 02:35:45;;;;;;;9.65;6.50;;;14.40;99.90;;;;;;5070104;28;20066;-74
2023/06/10 02:38:11;;;;;;;12.13;6.88;;;14.40;99.90;;;;;;5098297;28;20135;-74
2023/06/10 02:40:37;;;;;;;12.32;7.10;;;14.30;99.90;;;;;;5064096;28;20174;-74
2023/06/10 02:43:02;;;;;;;11.43;7.28;;;14.30;99.90;;;;;;5082999;28;20088;-74
2023/06/10 02:45:28;;;;;;;11.73;6.70;;;14.20;99.90;;;;;;5085567;28;20130;-74
2023/06/10 02:47:54;;;;;;;12.10;7.18;;;14.10;99.90;;;;;;5096134;27;20044;-74
2023/06/10 02:50:20;;;;;;;13.68;7.03;;;14.10;99.90;;;;;;5071116;28;20066;-75
2023/06/10 02:52:45;;;;;;;13.90;6.97;;;14.10;99.90;;;;;;5081046;28;20036;-75
2023/06/10 02:55:11;;;;;;;12.90;6.95;;;14.00;99.90;;;;;;5096405;27;20048;-74
2023/06/10 02:57:37;;;;;;;13.90;7.43;;;14.00;99.90;;;;;;5117109;27;20132;-74
2023/06/10 03:00:09;;;;;;;13.65;7.25;;;14.00;99.90;;;;;;5092225;27;20081;-75
2023/06/10 03:02:37;;;;;;;13.02;7.13;;;13.90;99.90;;;;;;5080214;28;20040;-75
2023/06/10 03:05:03;;;;;;;10.13;6.32;;;13.80;99.90;;;;;;5078824;28;20036;-74
2023/06/10 03:07:28;;;;;;;13.52;7.18;;;13.80;99.90;;;;;;5097709;27;20050;-74
2023/06/10 03:09:54;;;;;;;9.48;6.00;;;13.80;99.90;;;;;;5116934;27;20039;-74
2023/06/10 03:12:20;;;;;;;14.80;6.85;;;13.80;99.90;;;;;;5082655;28;20434;-74
2023/06/10 03:14:45;;;;;;;13.43;7.18;;;13.80;99.90;;;;;;5094605;27;20043;-74
2023/06/10 03:17:11;;;;;;;15.63;6.65;;;13.80;99.90;;;;;;5099136;28;20044;-75
2023/06/10 03:19:39;;;;;;;10.82;6.70;;;13.80;99.90;;;;;;5073680;28;20477;-74
2023/06/10 03:22:13;;;;;;;11.00;7.15;;;13.80;99.90;;;;;;5088736;28;20046;-74
2023/06/10 03:24:40;;;;;;;12.35;6.50;;;13.80;99.90;;;;;;5077915;28;20044;-74
2023/06/10 03:27:09;;;;;;;14.15;6.38;;;13.80;99.90;;;;;;5072479;28;20051;-75
2023/06/10 03:29:35;;;;;;;13.55;6.72;;;13.80;99.90;;;;;;5079800;28;20515;-75
2023/06/10 03:32:01;;;;;;;14.65;7.13;;;13.70;99.90;;;;;;5069542;28;20043;-74
2023/06/10 03:34:27;;;;;;;15.40;6.47;;;13.70;99.90;;;;;;5069870;28;20044;-74
2023/06/10 03:36:53;;;;;;;13.57;6.75;;;13.70;99.90;;;;;;5069378;28;20485;-75
2023/06/10 03:39:19;;;;;;;11.88;6.72;;;13.70;99.90;;;;;;5113685;27;20550;-74
2023/06/10 03:41:45;;;;;;;11.63;6.40;;;13.70;99.90;;;;;;5098305;28;20040;-74
2023/06/10 03:44:10;;;;;;;15.77;7.03;;;13.60;99.90;;;;;;5065890;28;20131;-74
2023/06/10 03:46:36;;;;;;;15.05;7.35;;;13.60;99.90;;;;;;5072833;28;20229;-74
2023/06/10 03:49:02;;;;;;;12.80;6.65;;;13.60;99.90;;;;;;5107081;27;20070;-74
2023/06/10 03:51:29;;;;;;;11.05;6.35;;;13.60;99.90;;;;;;5074485;28;20091;-74
2023/06/10 03:53:54;;;;;;;12.35;6.28;;;13.60;99.90;;;;;;5102148;28;20047;-74
2023/06/10 03:56:20;;;;;;;10.88;6.75;;;13.60;99.90;;;;;;5100216;28;20398;-74
2023/06/10 03:58:46;;;;;;;11.23;6.22;;;13.60;99.90;;;;;;5065774;28;20456;-74
2023/06/10 04:01:13;;;;;;;11.38;6.90;;;13.60;99.90;;;;;;5069828;28;20077;-74
2023/06/10 04:03:39;;;;;;;12.45;7.15;;;13.60;99.90;;;;;;5112745;27;20040;-74
2023/06/10 04:06:05;;;;;;;15.35;6.95;;;13.60;99.90;;;;;;5080069;28;20515;-74
2023/06/10 04:08:32;;;;;;;11.25;7.18;;;13.60;99.90;;;;;;5065339;28;20036;-74
2023/06/10 04:10:58;;;;;;;9.85;6.60;;;13.60;99.90;;;;;;5096954;28;20574;-74
2023/06/10 04:13:24;;;;;;;11.98;6.60;;;13.70;99.90;;;;;;5091099;28;20032;-74
2023/06/10 04:15:49;;;;;;;14.77;7.20;;;13.60;99.90;;;;;;5108018;27;20527;-74
2023/06/10 04:18:15;;;;;;;12.25;6.72;;;13.70;99.90;;;;;;5080065;28;20033;-74
2023/06/10 04:20:41;;;;;;;11.88;6.95;;;13.70;99.90;;;;;;5097077;28;20097;-74
2023/06/10 04:23:07;;;;;;;13.73;6.40;;;13.70;99.90;;;;;;5083327;28;20058;-74
2023/06/10 04:25:34;;;;;;;10.85;7.00;;;13.70;99.90;;;;;;5075345;28;20442;-74
2023/06/10 04:28:00;;;;;;;15.10;6.30;;;13.80;99.90;;;;;;5084051;28;20093;-74
2023/06/10 04:30:25;;;;;;;10.55;6.75;;;13.80;99.90;;;;;;5079259;28;20028;-74
2023/06/10 04:32:52;;;;;;;10.70;6.57;;;13.80;99.90;;;;;;5103668;27;20047;-75
2023/06/10 04:35:17;;;;;;;11.25;6.63;;;13.80;99.90;;;;;;5090243;28;20102;-75
2023/06/10 04:37:43;;;;;;;12.23;6.72;;;13.90;99.90;;;;;;5074019;28;20048;-75
2023/06/10 04:40:09;;;;;;;11.75;6.55;;;13.90;99.90;;;;;;5113240;27;20139;-75
2023/06/10 04:42:35;;;;;;;12.20;6.80;;;13.90;99.90;;;;;;5102203;27;20040;-74
2023/06/10 04:45:02;;;;;;;11.23;6.75;;;14.00;99.90;;;;;;5085861;28;20327;-75
2023/06/10 04:47:28;;;;;;;15.23;6.95;;;14.10;99.90;;;;;;5064069;28;20493;-74
2023/06/10 04:49:54;;;;;;;13.20;7.25;;;14.10;99.90;;;;;;5107766;27;20092;-75
2023/06/10 04:52:19;;;;;;;14.55;7.32;;;14.20;99.90;;;;;;5100154;27;20046;-74
2023/06/10 04:54:45;;;;;;;13.63;6.97;;;14.20;99.90;;;;;;5085212;28;20044;-74
2023/06/10 04:57:11;;;;;;;10.70;6.38;;;14.30;99.90;;;;;;5073038;28;20055;-74
2023/06/10 04:59:38;;;;;;;12.95;6.88;;;14.30;99.90;;;;;;5083455;28;20490;-75
2023/06/10 05:02:04;;;;;;;15.48;7.30;;;14.40;99.90;;;;;;5096314;28;20036;-75
2023/06/10 05:04:30;;;;;;;16.30;6.85;;;14.50;99.90;;;;;;5103040;27;20473;-74
2023/06/10 05:06:56;;;;;;;12.73;6.75;;;14.50;99.90;;;;;;5082564;28;20043;-74
2023/06/10 05:09:22;;;;;;;15.27;7.72;;;14.60;99.90;;;;;;5085065;28;20036;-75
2023/06/10 05:11:48;;;;;;;10.38;7.07;;;14.60;99.90;;;;;;5067381;28;20048;-74
2023/06/10 05:14:16;;;;;;;10.65;7.43;;;14.70;99.90;;;;;;5094589;27;20048;-74
2023/06/10 05:16:43;;;;;;;12.70;5.95;;;14.70;99.90;;;;;;5082861;28;20133;-74
2023/06/10 05:19:08;;;;;;;13.57;7.25;;;14.80;99.90;;;;;;5092514;28;20029;-74
2023/06/10 05:21:34;;;;;;;11.65;6.70;;;14.90;99.90;;;;;;5098292;27;21060;-75
2023/06/10 05:24:00;;;;;;;12.57;6.50;;;14.90;99.90;;;;;;5097643;27;20387;-75
2023/06/10 05:26:26;;;;;;;13.25;6.95;;;14.90;99.90;;;;;;5080404;28;20044;-75
2023/06/10 05:28:52;;;;;;;11.20;6.75;;;15.00;99.90;;;;;;5081760;28;20549;-74
2023/06/10 05:31:18;;;;;;;11.13;6.55;;;15.10;99.90;;;;;;5104996;27;20425;-75
2023/06/10 05:33:43;;;;;;;13.23;7.03;;;15.10;99.90;;;;;;5071777;28;20079;-75
2023/06/10 05:36:09;;;;;;;12.30;7.18;;;15.10;99.90;;;;;;5079876;28;20048;-75
2023/06/10 05:38:35;;;;;;;14.02;7.03;;;15.20;99.90;;;;;;5097532;27;20082;-75
2023/06/10 05:41:01;;;;;;;11.95;6.72;;;15.20;99.90;;;;;;5067662;28;20496;-75
2023/06/10 05:43:26;;;;;;;15.90;7.35;;;15.30;99.90;;;;;;5084173;28;20535;-75
2023/06/10 05:45:52;;;;;;;12.18;6.20;;;15.30;99.90;;;;;;5098395;27;20043;-75
2023/06/10 05:48:19;;;;;;;13.15;6.47;;;15.40;99.90;;;;;;5080582;28;20039;-75
2023/06/10 05:50:48;;;;;;;15.48;6.75;;;15.40;99.90;;;;;;5084800;28;20115;-75
2023/06/10 05:53:15;;;;;;;10.82;6.72;;;15.50;99.90;;;;;;5082458;28;20075;-75
2023/06/10 05:55:44;;;;;;;15.40;6.35;;;15.60;99.90;;;;;;5083830;28;20056;-75
2023/06/10 05:58:12;;;;;;;13.38;6.80;;;15.70;99.90;;;;;;5079946;28;20051;-75
2023/06/10 06:00:39;;;;;;;13.95;7.18;;;15.70;99.90;;;;;;5083650;28;20040;-75
2023/06/10 06:03:08;;;;;;;14.65;7.05;;;15.80;99.90;;;;;;5081937;28;20442;-75
2023/06/10 06:05:35;;;;;;;11.70;6.82;;;15.80;99.90;;;;;;5102797;27;20047;-75
2023/06/10 06:08:04;;;;;;;11.10;6.88;;;15.90;99.90;;;;;;5100227;28;20048;-75
2023/06/10 06:10:31;;;;;;;13.75;6.85;;;16.00;99.90;;;;;;5102080;27;20036;-74
2023/06/10 06:12:56;;;;;;;12.82;6.78;;;16.10;99.90;;;;;;5065579;28;20477;-74
2023/06/10 06:15:22;;;;;;;10.55;6.45;;;16.20;99.90;;;;;;5098784;27;20054;-75
2023/06/10 06:17:48;;;;;;;11.95;6.70;;;16.20;99.90;;;;;;5061871;28;20070;-75
2023/06/10 06:20:20;;;;;;;10.93;6.38;;;16.30;99.90;;;;;;5100836;27;20033;-76
2023/06/10 06:22:46;;;;;;;14.32;6.63;;;16.40;99.90;;;;;;5097781;27;20042;-76
2023/06/10 06:25:12;;;;;;;12.82;6.60;;;16.40;99.90;;;;;;5069916;28;20039;-76
2023/06/10 06:27:37;;;;;;;10.50;6.75;;;16.50;99.90;;;;;;5077874;28;20408;-75
2023/06/10 06:30:04;;;;;;;11.93;6.47;;;16.60;99.90;;;;;;5068868;28;20040;-76
2023/06/10 06:32:29;;;;;;;13.05;7.05;;;16.70;99.90;;;;;;5090094;27;20033;-76
2023/06/10 06:34:55;;;;;;;13.70;6.75;;;16.80;99.90;;;;;;5095126;27;20048;-74
2023/06/10 06:37:25;;;;;;;13.77;6.55;;;16.90;99.90;;;;;;5060917;28;20027;-74
2023/06/10 06:39:52;;;;;;;16.42;6.85;;;17.00;99.90;;;;;;5094329;27;20796;-75
2023/06/10 06:42:18;;;;;;;10.90;6.32;;;17.10;99.90;;;;;;5085136;28;20071;-76
2023/06/10 06:44:44;;;;;;;10.75;6.72;;;17.20;99.90;;;;;;5075096;28;20438;-75
2023/06/10 06:47:10;;;;;;;9.10;6.43;;;17.30;99.90;;;;;;5081233;28;20048;-66
2023/06/10 06:49:35;;;;;;;13.95;7.20;;;17.30;99.90;;;;;;5111166;27;20044;-66
2023/06/10 06:52:01;;;;;;;11.23;6.82;;;17.40;99.90;;;;;;5079764;28;20044;-66
2023/06/10 06:54:27;;;;;;;10.63;6.70;;;17.50;99.90;;;;;;5083273;28;20116;-66
2023/06/10 06:56:53;;;;;;;10.82;6.25;;;17.60;99.90;;;;;;5085939;28;20071;-66
2023/06/10 06:59:19;;;;;;;9.15;5.95;;;17.70;99.90;;;;;;5060868;28;20062;-66
2023/06/10 07:01:46;;;;;;;11.95;6.60;;;17.90;99.90;;;;;;5044757;28;20037;-66
2023/06/10 07:04:11;;;;;;;15.13;7.40;;;18.00;99.90;;;;;;5055979;28;20041;-66
2023/06/10 07:06:38;;;;;;;10.52;6.50;;;18.00;99.90;;;;;;5056483;28;20381;-65
2023/06/10 07:09:04;;;;;;;12.30;7.40;;;18.20;99.90;;;;;;5063643;28;20262;-66
2023/06/10 07:11:30;;;;;;;13.15;7.47;;;18.20;99.90;;;;;;5061478;28;20046;-66
2023/06/10 07:13:56;;;;;;;11.93;6.32;;;18.30;99.90;;;;;;5052959;28;20128;-67
2023/06/10 07:16:22;;;;;;;10.35;6.75;;;18.50;99.90;;;;;;5068435;28;20044;-67
2023/06/10 07:18:48;;;;;;;16.10;7.57;;;18.60;99.90;;;;;;5062454;28;20044;-67
2023/06/10 07:21:13;;;;;;;14.85;8.00;;;18.60;99.90;;;;;;5052568;28;20040;-66
2023/06/10 07:23:43;;;;;;;16.20;8.02;;;18.70;99.90;;;;;;5050348;28;20455;-67
2023/06/10 07:26:10;;;;;;;12.57;8.35;;;18.90;99.90;;;;;;5031901;28;20567;-66
2023/06/10 07:28:40;;;;;;;14.68;8.00;;;19.00;99.90;;;;;;5064975;28;20048;-66
2023/06/10 07:31:06;;;;;;;14.23;8.05;;;19.00;99.90;;;;;;5051798;28;20082;-67
2023/06/10 07:33:32;;;;;;;15.15;8.80;;;19.10;99.90;;;;;;5052827;28;20755;-66
2023/06/10 07:35:58;;;;;;;13.32;9.50;;;19.20;99.90;;;;;;5050677;28;20093;-66
2023/06/10 07:38:25;;;;;;;17.85;10.00;;;19.30;99.90;;;;;;5048573;28;20101;-66
2023/06/10 07:40:51;;;;;;;15.02;9.43;;;19.40;99.90;;;;;;5052741;28;21480;-66
2023/06/10 07:43:18;;;;;;;12.80;9.07;;;19.50;99.90;;;;;;5052312;28;20052;-66
2023/06/10 07:45:44;;;;;;;14.18;9.70;;;19.50;99.90;;;;;;5050119;28;20066;-66
2023/06/10 07:48:11;;;;;;;14.30;8.85;;;19.60;99.90;;;;;;5052166;28;20032;-66
2023/06/10 07:50:36;;;;;;;13.05;9.25;;;19.70;99.90;;;;;;5058347;28;20405;-66
2023/06/10 07:53:02;;;;;;;13.98;9.93;;;19.90;99.90;;;;;;5066531;28;20091;-65
2023/06/10 07:55:29;;;;;;;14.00;10.52;;;20.00;99.90;;;;;;5090703;28;20102;-66
2023/06/10 07:57:55;;;;;;;17.42;10.45;;;20.10;99.90;;;;;;5058842;28;20116;-66
2023/06/10 08:00:21;;;;;;;15.35;9.93;;;20.20;99.90;;;;;;5063689;28;20163;-66
2023/06/10 08:02:47;;;;;;;13.30;10.20;;;20.30;99.90;;;;;;5102703;27;20048;-66
2023/06/10 08:05:13;;;;;;;17.08;11.10;;;20.40;99.90;;;;;;5068879;28;20036;-66
2023/06/10 08:07:41;;;;;;;14.88;9.73;;;20.40;99.90;;;;;;5066203;28;20036;-77
2023/06/10 08:10:07;;;;;;;17.38;10.88;;;20.60;99.90;;;;;;5045379;28;20036;-78
2023/06/10 08:12:34;;;;;;;15.73;9.75;;;20.70;99.90;;;;;;5089447;28;20033;-79
2023/06/10 08:15:00;;;;;;;14.63;9.90;;;20.80;99.90;;;;;;5049052;28;20067;-78
2023/06/10 08:17:26;;;;;;;11.57;8.93;;;20.90;99.90;;;;;;5084080;28;20586;-78
2023/06/10 08:19:52;;;;;;;13.43;9.25;;;21.00;99.90;;;;;;5056154;28;20041;-77
2023/06/10 08:22:18;;;;;;;12.00;8.80;;;21.30;99.90;;;;;;5096489;27;20041;-77
2023/06/10 08:24:44;;;;;;;13.48;7.82;;;21.40;99.90;;;;;;5066400;28;20459;-76
2023/06/10 08:27:10;;;;;;;13.02;7.95;;;21.40;99.90;;;;;;5034696;28;20048;-76
2023/06/10 08:29:36;;;;;;;12.38;8.30;;;21.50;99.90;;;;;;5064131;28;20067;-77
2023/06/10 08:32:02;;;;;;;12.70;8.27;;;21.60;99.90;;;;;;5080230;28;20048;-77
2023/06/10 08:34:28;;;;;;;16.98;8.68;;;21.70;99.90;;;;;;5048208;28;20102;-75
2023/06/10 08:36:55;;;;;;;10.82;7.05;;;21.90;99.90;;;;;;5064449;28;20037;-76
2023/06/10 08:39:22;;;;;;;10.52;7.25;;;22.10;99.90;;;;;;5100646;27;20571;-76
2023/06/10 08:42:19;;;;;;;10.65;7.18;;;22.20;99.90;;;;;;5076674;28;20057;-75
2023/06/10 08:44:46;;;;;;;9.20;6.38;;;22.40;99.30;;;;;;5045643;28;20070;-76
2023/06/10 08:47:16;;;;;;;27.88;7.85;;;22.70;99.50;;;;;;5100166;27;20104;-75
2023/06/10 08:49:46;;;;;;;12.15;6.55;;;22.80;98.60;;;;;;5081064;28;20588;-75
2023/06/10 08:52:17;;;;;;;7.60;6.25;;;23.00;98.30;;;;;;5059197;28;20102;-75
2023/06/10 08:55:03;;;;;;;10.95;6.95;;;23.10;97.50;;;;;;5082217;28;20075;-76
2023/06/10 08:57:30;;;;;;;10.35;6.00;;;23.30;96.50;;;;;;5097163;27;20641;-76
2023/06/10 08:59:57;;;;;;;9.43;5.90;;;23.30;97.30;;;;;;5045215;28;20091;-75
2023/06/10 09:02:24;;;;;;;8.10;5.50;;;23.40;96.80;;;;;;5049599;28;20068;-76
2023/06/10 09:04:51;;;;;;;8.75;5.43;;;23.40;96.40;;;;;;5049484;28;20421;-76
2023/06/10 09:07:17;;;;;;;9.80;6.00;;;23.60;95.50;;;;;;5057945;28;20047;-77
2023/06/10 09:09:44;;;;;;;7.47;5.78;;;23.80;95.80;;;;;;5066860;28;20048;-76
2023/06/10 09:12:12;;;;;;;9.93;5.22;;;23.90;95.30;;;;;;5049290;28;20036;-76
2023/06/10 09:14:37;;;;;;;8.57;5.60;;;23.90;94.60;;;;;;5041545;28;20067;-76
2023/06/10 09:17:06;;;;;;;10.80;6.00;;;24.00;94.40;;;;;;5063672;28;20072;-76
2023/06/10 09:19:32;;;;;;;7.97;5.07;;;24.10;94.30;;;;;;5058855;28;20064;-76
2023/06/10 09:21:58;;;;;;;7.20;4.95;;;24.20;93.60;;;;;;5098292;27;20068;-75
2023/06/10 09:24:25;;;;;;;9.23;5.60;;;24.30;93.40;;;;;;5038084;28;20041;-76
2023/06/10 09:27:08;;;;;;;7.88;4.88;;;24.40;93.10;;;;;;5061973;28;20036;-76
2023/06/10 09:30:00;;;;;;;9.65;4.90;;;24.50;92.70;;;;;;5045934;28;20336;-76
2023/06/10 09:32:27;;;;;;;5.85;4.35;;;24.70;91.90;;;;;;5044195;28;20413;-76
2023/06/10 09:34:53;;;;;;;6.82;4.38;;;24.80;91.40;;;;;;5046175;28;20060;-76
2023/06/10 09:37:23;;;;;;;6.22;4.47;;;24.90;90.10;;;;;;5066014;28;20033;-76
2023/06/10 09:40:05;;;;;;;5.50;4.38;;;25.00;89.30;;;;;;5047531;28;20119;-77
2023/06/10 09:42:37;;;;;;;6.45;4.43;;;25.10;88.30;;;;;;5046065;28;20032;-76
2023/06/10 09:45:03;;;;;;;6.97;4.38;;;25.30;88.40;;;;;;5095329;27;20036;-76
2023/06/10 09:47:29;;;;;;;7.10;4.28;;;25.40;88.40;;;;;;5047789;28;20048;-76
2023/06/10 09:49:55;;;;;;;8.00;4.43;;;25.40;86.60;;;;;;5062216;28;20036;-76
2023/06/10 09:52:25;;;;;;;6.93;4.65;;;25.60;87.10;;;;;;5016538;28;20076;-76
2023/06/10 09:54:52;;;;;;;22.75;5.93;;;25.70;85.70;;;;;;5047597;28;20039;-76
2023/06/10 09:57:18;;;;;;;54.05;9.93;;;25.80;85.00;;;;;;5075331;28;20315;-76
2023/06/10 09:59:45;;;;;;;9.48;4.03;;;26.00;84.50;;;;;;5090904;27;20486;-76
2023/06/10 10:02:15;;;;;;;8.98;4.32;;;26.10;82.20;;;;;;5063561;28;20181;-77
2023/06/10 10:04:42;;;;;;;13.40;3.92;;;26.20;82.40;;;;;;5058993;28;20045;-77
2023/06/10 10:07:09;;;;;;;7.88;3.67;;;26.20;79.80;;;;;;5030817;28;20051;-77
2023/06/10 10:09:39;;;;;;;16.17;4.90;;;26.30;79.30;;;;;;5016151;28;20122;-76
2023/06/10 10:12:14;;;;;;;16.38;4.47;;;26.50;77.80;;;;;;5062660;28;20097;-76
2023/06/10 10:14:45;;;;;;;6.22;3.85;;;26.60;77.00;;;;;;5044287;28;20062;-77
2023/06/10 10:17:13;;;;;;;8.30;3.97;;;26.70;77.60;;;;;;5072003;28;20048;-77
2023/06/10 10:19:53;;;;;;;8.52;3.50;;;26.80;77.60;;;;;;5081137;28;20037;-77
2023/06/10 10:22:25;;;;;;;6.45;3.45;;;26.90;75.40;;;;;;5093067;27;20036;-77
2023/06/10 10:24:56;;;;;;;5.88;3.35;;;27.00;76.50;;;;;;5098079;27;20044;-77
2023/06/10 10:27:28;;;;;;;8.55;4.07;;;27.10;73.90;;;;;;5090006;27;20036;-77
2023/06/10 10:29:54;;;;;;;5.25;3.63;;;27.20;74.50;;;;;;5082808;28;20048;-77
2023/06/10 10:32:32;;;;;;;4.90;3.40;;;27.30;73.90;;;;;;5035075;28;20135;-77
2023/06/10 10:35:07;;;;;;;5.13;3.30;;;27.40;72.70;;;;;;5069842;28;20040;-76
2023/06/10 10:37:33;;;;;;;5.40;3.30;;;27.40;69.60;;;;;;5067525;28;20032;-76
2023/06/10 10:40:02;;;;;;;7.07;3.40;;;27.40;70.80;;;;;;5035431;28;20059;-77
2023/06/10 10:42:29;;;;;;;3.83;3.10;;;27.50;68.70;;;;;;5047447;28;20036;-77
2023/06/10 10:44:55;;;;;;;4.45;3.03;;;27.70;69.30;;;;;;5043603;28;20094;-77
2023/06/10 10:47:22;;;;;;;4.38;3.10;;;27.70;68.10;;;;;;5041882;28;20423;-77
2023/06/10 10:49:54;;;;;;;5.70;3.58;;;27.80;66.60;;;;;;5067974;28;20037;-76
2023/06/10 10:52:20;;;;;;;5.68;3.10;;;28.00;67.40;;;;;;5047750;28;20044;-77
2023/06/10 10:54:47;;;;;;;4.50;3.05;;;28.20;67.20;;;;;;5080514;28;20445;-77
2023/06/10 10:57:15;;;;;;;7.32;3.67;;;28.40;67.70;;;;;;5026512;28;20048;-77
2023/06/10 10:59:56;;;;;;;5.70;4.18;;;28.40;69.30;;;;;;5077407;28;20150;-77
2023/06/10 11:02:40;;;;;;;5.72;3.20;;;28.40;69.60;;;;;;5055872;28;20043;-77
2023/06/10 11:05:07;;;;;;;7.05;3.50;;;28.30;68.30;;;;;;5062763;28;20074;-77
2023/06/10 11:07:34;;;;;;;5.80;3.30;;;28.50;68.40;;;;;;5068805;28;20079;-77
2023/06/10 11:10:06;;;;;;;7.15;3.10;;;28.50;66.50;;;;;;5088120;28;20052;-77
2023/06/10 11:12:58;;;;;;;15.88;3.95;;;28.50;67.00;;;;;;5054075;28;20170;-77
2023/06/10 11:15:28;;;;;;;4.20;2.70;;;28.50;64.80;;;;;;5062372;28;20051;-77
2023/06/10 11:18:14;;;;;;;4.50;2.92;;;28.60;64.20;;;;;;5047322;28;20045;-77
2023/06/10 11:20:48;;;;;;;4.65;3.00;;;28.70;63.20;;;;;;5048951;28;20097;-77
2023/06/10 11:23:30;;;;;;;5.80;3.35;;;28.80;64.80;;;;;;5042935;28;20488;-77
2023/06/10 11:26:14;;;;;;;6.88;3.38;;;28.90;66.70;;;;;;5057982;28;20094;-76
2023/06/10 11:28:46;;;;;;;10.13;3.45;;;29.00;63.70;;;;;;5067068;28;20056;-76
2023/06/10 11:31:23;;;;;;;5.90;3.67;;;29.10;63.30;;;;;;5048861;28;20624;-76
2023/06/10 11:33:56;;;;;;;7.60;3.10;;;29.10;62.40;;;;;;5067461;28;20040;-76
2023/06/10 11:36:22;;;;;;;6.97;3.30;;;29.20;63.30;;;;;;5090069;28;20071;-77
2023/06/10 11:38:49;;;;;;;6.80;2.90;;;29.30;63.60;;;;;;5051836;28;20112;-76
2023/06/10 11:41:15;;;;;;;5.25;3.15;;;29.30;63.50;;;;;;5051897;28;20474;-76
2023/06/10 11:43:44;;;;;;;4.68;3.25;;;29.30;62.00;;;;;;5068331;28;20046;-76
2023/06/10 11:46:10;;;;;;;3.58;3.00;;;29.30;61.50;;;;;;5047431;28;20153;-76
2023/06/10 11:48:36;;;;;;;6.70;3.03;;;29.40;62.90;;;;;;5076101;28;20493;-76
2023/06/10 11:51:06;;;;;;;11.18;3.75;;;29.50;62.40;;;;;;5066176;28;20036;-77
2023/06/10 11:53:32;;;;;;;5.18;3.42;;;29.50;61.50;;;;;;5058800;28;20378;-78
2023/06/10 11:55:58;;;;;;;77.60;6.95;;;29.50;61.30;;;;;;5056209;28;20063;-79
2023/06/10 11:58:24;;;;;;;19.02;3.60;;;29.60;60.60;;;;;;5035605;28;20062;-77
2023/06/10 12:00:58;;;;;;;13.63;3.53;;;29.70;60.40;;;;;;5062841;28;20028;-77
2023/06/10 12:03:24;;;;;;;6.32;2.80;;;29.60;59.50;;;;;;5045099;28;20044;-75
2023/06/10 12:06:00;;;;;;;3.40;2.78;;;29.70;59.20;;;;;;5044180;28;20036;-75
2023/06/10 12:08:27;;;;;;;6.07;2.85;;;29.70;57.70;;;;;;5065458;28;20696;-74
2023/06/10 12:10:53;;;;;;;4.95;2.72;;;29.80;57.40;;;;;;5079708;28;20044;-74
2023/06/10 12:13:19;;;;;;;4.35;2.90;;;29.80;57.60;;;;;;5063998;28;20527;-74
2023/06/10 12:15:48;;;;;;;3.30;2.63;;;29.80;57.60;;;;;;5066226;28;20051;-74
2023/06/10 12:18:21;;;;;;;3.60;2.70;;;29.70;57.40;;;;;;5058413;28;20133;-74
2023/06/10 12:20:48;;;;;;;6.10;3.00;;;29.80;57.40;;;;;;5069856;28;20036;-74
2023/06/10 12:23:14;;;;;;;4.28;2.55;;;29.70;55.60;;;;;;5045876;28;20433;-76
2023/06/10 12:25:50;;;;;;;2.53;2.33;;;29.60;54.30;;;;;;5064669;28;20394;-77
2023/06/10 12:28:17;;;;;;;6.05;2.88;;;29.60;55.30;;;;;;5043882;28;20049;-76
2023/06/10 12:30:43;;;;;;;7.85;2.75;;;29.60;55.40;;;;;;5075488;28;20107;-77
2023/06/10 12:33:19;;;;;;;4.20;2.97;;;29.70;55.90;;;;;;5083488;28;20121;-77
2023/06/10 12:35:50;;;;;;;3.20;2.63;;;29.80;54.90;;;;;;5081719;28;20617;-77
2023/06/10 12:38:26;;;;;;;4.45;3.20;;;29.80;55.20;;;;;;5066065;28;20036;-76
2023/06/10 12:40:53;;;;;;;4.13;2.95;;;30.00;55.20;;;;;;5095806;28;20045;-77
2023/06/10 12:43:25;;;;;;;5.10;2.80;;;30.00;55.40;;;;;;5030593;28;20086;-77
2023/06/10 12:45:51;;;;;;;47.03;5.50;;;30.00;54.10;;;;;;5063200;28;20163;-77